Terminal Aerodrome Forecast
Issued by NWS Twin Cities, MN

Home | Current Version | Previous Version | Text Only | Print | Product List | Glossary Off
Versions: 1 2 3 4 5 6 7 8 9 10 11 12 13

000
FTUS43 KMPX 210520
TAFEAU
TAF
KEAU 210520Z 2106/2206 VRB05KT P6SM SCT200
     FM211300 33010G16KT P6SM SKC
     FM220000 01005KT P6SM SKC=

USA.gov is the U.S. government's official web portal to all federal, state and local government web resources and services.